createdAt,value
2022-09-05T00:02:39.328Z,17.97
2022-09-05T00:05:46.563Z,18.60
2022-09-05T00:08:34.126Z,18.20
2022-09-05T00:11:41.629Z,17.60
2022-09-05T00:14:11.924Z,17.67
2022-09-05T00:17:00.262Z,18.13
2022-09-05T00:24:22.790Z,17.40
2022-09-05T00:24:29.218Z,17.07
2022-09-05T00:25:57.265Z,17.30
2022-09-05T00:28:33.895Z,16.70
2022-09-05T00:31:54.465Z,16.97
2022-09-05T00:34:47.564Z,16.90
2022-09-05T00:37:32.138Z,17.30
2022-09-05T00:40:22.520Z,17.40
2022-09-05T00:42:54.433Z,18.80
2022-09-05T00:45:29.884Z,19.00
2022-09-05T00:48:08.620Z,18.43
2022-09-05T00:50:49.169Z,19.00
2022-09-05T00:53:23.085Z,18.23
2022-09-05T00:56:05.273Z,17.77
2022-09-05T00:58:59.661Z,17.57
2022-09-05T01:01:32.982Z,18.50
2022-09-05T01:04:24.306Z,18.40
2022-09-05T01:07:09.714Z,19.07
2022-09-05T01:09:51.576Z,19.07
2022-09-05T01:12:53.076Z,19.40
2022-09-05T01:15:32.750Z,18.70
2022-09-05T01:18:23.745Z,18.57
2022-09-05T01:21:08.395Z,17.83
2022-09-05T01:23:52.524Z,17.50
2022-09-05T01:26:52.987Z,17.63
2022-09-05T01:29:34.525Z,17.40
2022-09-05T01:32:30.469Z,18.00
2022-09-05T01:35:25.801Z,19.10
2022-09-05T01:37:59.975Z,19.87
2022-09-05T01:40:38.502Z,19.17
2022-09-05T01:43:20.907Z,19.37
2022-09-05T01:45:55.515Z,19.87
2022-09-05T01:48:32.960Z,18.70
2022-09-05T01:51:29.217Z,18.17
2022-09-05T01:54:26.049Z,18.20
2022-09-05T01:57:09.336Z,18.70
2022-09-05T01:59:45.925Z,17.63
2022-09-05T02:02:33.435Z,16.10
2022-09-05T02:05:47.760Z,16.00
2022-09-05T02:08:35.235Z,16.97
2022-09-05T02:11:07.072Z,18.60
2022-09-05T02:13:57.427Z,17.93
2022-09-05T02:16:33.595Z,17.07
2022-09-05T02:19:12.116Z,16.10
2022-09-05T02:21:55.971Z,17.07
2022-09-05T02:24:30.198Z,16.90
2022-09-05T02:27:31.679Z,16.67
2022-09-05T02:30:12.992Z,16.23
2022-09-05T02:32:52.154Z,15.93
2022-09-05T02:35:28.865Z,16.60
2022-09-05T02:39:09.175Z,16.50
2022-09-05T02:45:06.970Z,15.97
2022-09-05T02:45:12.505Z,16.87
2022-09-05T02:46:51.948Z,16.90
2022-09-05T02:50:12.895Z,16.70
2022-09-05T02:57:24.732Z,17.43
2022-09-05T02:57:40.242Z,17.00
2022-09-05T02:59:09.129Z,18.23
2022-09-05T03:02:08.018Z,18.40
2022-09-05T03:05:04.290Z,17.97
2022-09-05T03:08:04.507Z,17.33
2022-09-05T03:11:13.037Z,17.43
2022-09-05T03:14:18.505Z,17.10
2022-09-05T03:17:30.128Z,17.20
2022-09-05T03:20:24.520Z,16.33
2022-09-05T03:23:33.159Z,16.30
2022-09-05T03:26:52.764Z,16.13
2022-09-05T03:29:58.663Z,17.17
2022-09-05T03:33:06.191Z,18.00
2022-09-05T03:36:04.275Z,18.80
2022-09-05T03:39:05.981Z,18.30
2022-09-05T03:41:50.537Z,18.23
2022-09-05T03:44:40.622Z,17.70
2022-09-05T03:47:50.116Z,17.17
2022-09-05T03:57:04.868Z,16.70
2022-09-05T03:57:10.813Z,16.80
2022-09-05T03:57:32.444Z,18.40
2022-09-05T04:00:09.013Z,19.33
2022-09-05T04:08:10.723Z,18.60
2022-09-05T04:08:27.923Z,19.47
2022-09-05T04:08:42.950Z,18.50
2022-09-05T04:11:17.449Z,19.10
2022-09-05T04:13:54.589Z,18.30
2022-09-05T04:16:29.803Z,18.10
2022-09-05T04:19:09.747Z,17.70
2022-09-05T04:21:45.417Z,16.63
2022-09-05T04:24:19.274Z,17.53
2022-09-05T04:27:08.560Z,16.60
2022-09-05T04:29:50.187Z,16.83
2022-09-05T04:32:31.876Z,17.00
2022-09-05T04:35:31.049Z,15.97
2022-09-05T04:38:09.667Z,14.57
2022-09-05T04:40:46.124Z,13.00
2022-09-05T04:43:23.219Z,11.97
2022-09-05T04:45:54.637Z,11.80
2022-09-05T04:48:29.797Z,11.57
2022-09-05T04:51:06.438Z,11.27
2022-09-05T04:53:58.153Z,10.40
2022-09-05T04:56:29.778Z,10.90
2022-09-05T05:00:47.034Z,10.17
2022-09-05T05:06:04.194Z,10.90
2022-09-05T05:06:17.931Z,10.63
2022-09-05T05:07:45.873Z,11.20
2022-09-05T05:11:21.314Z,10.80
2022-09-05T05:18:01.553Z,10.70
2022-09-05T05:18:14.075Z,10.80
2022-09-05T05:19:18.586Z,11.30
2022-09-05T05:21:55.496Z,11.73
2022-09-05T05:24:28.014Z,11.70
2022-09-05T05:27:05.206Z,11.90
2022-09-05T05:29:44.787Z,11.83
2022-09-05T05:32:44.881Z,11.53
2022-09-05T05:35:11.926Z,11.30
2022-09-05T05:37:45.606Z,12.63
2022-09-05T05:40:22.886Z,11.77
2022-09-05T05:42:51.553Z,11.63
2022-09-05T05:45:25.852Z,11.43
2022-09-05T05:48:00.458Z,11.50
2022-09-05T05:50:36.416Z,10.97
2022-09-05T05:53:43.215Z,11.30
2022-09-05T05:56:40.137Z,11.40
2022-09-05T05:59:56.797Z,10.68
2022-09-05T06:03:24.914Z,10.32
2022-09-05T06:06:23.887Z,11.00
2022-09-05T06:14:48.780Z,10.25
2022-09-05T06:14:57.619Z,10.15
2022-09-05T06:16:41.437Z,10.18
2022-09-05T06:22:04.921Z,10.13
2022-09-05T06:23:28.054Z,11.02
2022-09-05T06:26:41.031Z,11.23
2022-09-05T06:29:38.053Z,10.70
2022-09-05T06:32:22.082Z,10.35
2022-09-05T06:35:20.066Z,10.77
2022-09-05T06:38:03.157Z,10.65
2022-09-05T06:40:38.899Z,10.88
2022-09-05T06:43:19.481Z,11.13
2022-09-05T06:46:05.580Z,11.05
2022-09-05T06:49:33.458Z,10.77
2022-09-05T06:52:27.873Z,10.63
2022-09-05T06:55:22.967Z,10.63
2022-09-05T06:58:26.835Z,10.38
2022-09-05T07:00:57.856Z,11.15
2022-09-05T07:03:56.128Z,10.27
2022-09-05T07:07:01.888Z,10.65
2022-09-05T07:09:30.728Z,9.90
2022-09-05T07:12:13.537Z,10.93
2022-09-05T07:14:53.026Z,9.93
2022-09-05T07:17:53.602Z,9.80
2022-09-05T07:21:15.822Z,10.10
2022-09-05T07:23:54.823Z,10.05
2022-09-05T07:26:51.795Z,10.07
2022-09-05T07:29:25.288Z,10.00
2022-09-05T07:31:58.387Z,10.05
2022-09-05T07:34:31.233Z,9.80
2022-09-05T07:37:14.201Z,9.20
2022-09-05T07:39:49.085Z,9.32
2022-09-05T07:42:22.024Z,9.88
2022-09-05T07:44:56.734Z,9.20
2022-09-05T07:47:31.173Z,10.13
2022-09-05T07:53:18.684Z,10.00
2022-09-05T07:57:06.017Z,10.10
2022-09-05T07:57:06.274Z,9.95
2022-09-05T07:58:43.993Z,9.77
2022-09-05T08:01:14.672Z,9.07
2022-09-05T08:03:44.568Z,9.00
2022-09-05T08:07:14.302Z,9.55
2022-09-05T08:10:08.118Z,9.10
2022-09-05T08:12:11.412Z,8.75
2022-09-05T08:14:50.685Z,9.40
2022-09-05T08:17:21.594Z,9.05
2022-09-05T08:20:28.691Z,8.77
2022-09-05T08:23:08.896Z,9.07
2022-09-05T08:25:56.806Z,8.40
2022-09-05T08:28:39.163Z,9.40
2022-09-05T08:31:15.065Z,8.77
2022-09-05T08:33:45.187Z,9.38
2022-09-05T08:36:23.220Z,9.30
2022-09-05T08:38:54.266Z,8.73
2022-09-05T08:41:49.437Z,9.00
2022-09-05T08:46:37.186Z,9.85
2022-09-05T08:47:25.810Z,8.93
2022-09-05T08:50:14.133Z,9.65
2022-09-05T08:53:18.681Z,8.85
2022-09-05T08:56:20.606Z,8.90
2022-09-05T08:59:32.458Z,8.60
2022-09-05T09:02:45.995Z,8.95
2022-09-05T09:05:14.113Z,8.32
2022-09-05T09:07:51.119Z,8.68
2022-09-05T09:10:39.590Z,9.38
2022-09-05T09:13:25.029Z,9.13
2022-09-05T09:16:04.705Z,8.77
2022-09-05T09:18:42.354Z,8.80
2022-09-05T09:21:29.555Z,8.90
2022-09-05T09:24:07.954Z,8.52
2022-09-05T09:26:43.752Z,8.73
2022-09-05T09:29:18.026Z,8.77
2022-09-05T09:31:59.963Z,8.63
2022-09-05T09:34:58.236Z,8.38
2022-09-05T09:37:59.562Z,8.32
2022-09-05T09:41:00.483Z,9.52
2022-09-05T09:43:52.584Z,8.90
2022-09-05T09:46:33.682Z,9.40
2022-09-05T09:49:23.787Z,9.70
2022-09-05T09:52:34.074Z,9.35
2022-09-05T09:55:39.176Z,9.10
2022-09-05T09:58:39.787Z,8.80
2022-09-05T10:01:36.455Z,9.20
2022-09-05T10:10:33.151Z,9.82
2022-09-05T10:10:55.365Z,10.10
2022-09-05T10:11:52.036Z,10.30
2022-09-05T10:14:50.743Z,10.35
2022-09-05T10:17:38.718Z,9.85
2022-09-05T10:20:39.398Z,8.60
2022-09-05T10:23:49.581Z,8.05
2022-09-05T10:26:44.343Z,8.07
2022-09-05T10:29:36.467Z,8.02
2022-09-05T10:35:06.164Z,9.10
2022-09-05T10:35:07.488Z,9.13
2022-09-05T10:37:54.237Z,9.05
2022-09-05T10:40:25.572Z,10.80
2022-09-05T10:43:00.385Z,9.18
2022-09-05T10:45:40.057Z,9.45
2022-09-05T10:48:16.346Z,9.40
2022-09-05T10:50:49.236Z,9.18
2022-09-05T10:53:31.134Z,9.70
2022-09-05T10:56:14.271Z,9.65
2022-09-05T11:02:16.401Z,8.95
2022-09-05T11:02:29.926Z,9.45
2022-09-05T11:05:00.634Z,9.30
2022-09-05T11:07:39.591Z,9.13
2022-09-05T11:10:17.311Z,9.05
2022-09-05T11:13:01.998Z,9.40
2022-09-05T11:15:37.120Z,8.73
2022-09-05T11:18:23.173Z,9.60
2022-09-05T11:21:08.635Z,9.20
2022-09-05T11:23:41.146Z,9.48
2022-09-05T11:26:31.295Z,9.05
2022-09-05T11:29:06.753Z,9.05
2022-09-05T11:34:18.205Z,9.85
2022-09-05T11:39:48.848Z,8.80
2022-09-05T11:40:06.076Z,9.25
2022-09-05T11:42:17.219Z,8.65
2022-09-05T11:45:11.814Z,9.07
2022-09-05T11:48:20.024Z,8.93
2022-09-05T11:51:33.945Z,8.90
2022-09-05T11:54:44.117Z,9.13
2022-09-05T11:57:36.746Z,8.77
2022-09-05T12:00:33.868Z,8.93
2022-09-05T12:06:30.862Z,8.52
2022-09-05T12:09:06.866Z,8.25
2022-09-05T12:11:53.239Z,8.50
2022-09-05T12:14:42.415Z,8.90
2022-09-05T12:17:43.253Z,9.02
2022-09-05T12:20:22.328Z,8.27
2022-09-05T12:22:58.171Z,9.02
2022-09-05T12:27:44.722Z,8.40
2022-09-05T12:29:33.517Z,8.13
2022-09-05T12:32:55.300Z,7.78
2022-09-05T12:36:08.055Z,7.57
2022-09-05T12:40:25.374Z,8.00
2022-09-05T12:41:35.459Z,8.68
2022-09-05T12:41:38.938Z,8.43
2022-09-05T12:44:40.285Z,7.97
2022-09-05T12:46:25.154Z,7.70
2022-09-05T12:49:07.163Z,8.32
2022-09-05T12:51:46.774Z,7.95
2022-09-05T12:54:33.367Z,8.00
2022-09-05T13:02:09.280Z,7.80
2022-09-05T13:03:09.168Z,8.38
2022-09-05T13:03:27.081Z,8.25
2022-09-05T13:05:54.052Z,8.60
2022-09-05T13:08:24.806Z,8.55
2022-09-05T13:14:47.307Z,7.43
2022-09-05T13:14:52.850Z,7.80
2022-09-05T13:16:42.369Z,8.52
2022-09-05T13:19:32.085Z,8.55
2022-09-05T13:22:03.486Z,8.48
2022-09-05T13:24:37.519Z,8.80
2022-09-05T13:27:14.717Z,9.35
2022-09-05T13:30:40.130Z,8.48
2022-09-05T13:38:04.147Z,8.32
2022-09-05T13:38:30.437Z,8.30
2022-09-05T13:38:48.761Z,9.65
2022-09-05T13:41:28.371Z,9.38
2022-09-05T13:44:25.591Z,8.55
2022-09-05T13:46:58.497Z,8.48
2022-09-05T13:49:33.280Z,8.63
2022-09-05T13:52:26.231Z,8.27
2022-09-05T13:55:18.333Z,8.70
2022-09-05T13:57:50.611Z,8.45
2022-09-05T14:00:44.413Z,8.50
2022-09-05T14:03:40.422Z,8.93
2022-09-05T14:06:46.576Z,8.25
2022-09-05T14:09:42.896Z,8.70
2022-09-05T14:12:29.298Z,8.65
2022-09-05T14:15:10.211Z,8.82
2022-09-05T14:17:58.351Z,9.18
2022-09-05T14:20:49.691Z,8.45
2022-09-05T14:23:21.142Z,8.70
2022-09-05T14:25:54.306Z,8.77
2022-09-05T14:28:28.955Z,8.40
2022-09-05T14:33:16.741Z,8.50
2022-09-05T14:37:40.436Z,8.50
2022-09-05T14:37:53.210Z,8.45
2022-09-05T14:40:29.550Z,9.07
2022-09-05T14:43:24.460Z,8.77
2022-09-05T14:46:13.528Z,8.95
2022-09-05T14:48:57.796Z,9.05
2022-09-05T14:51:43.036Z,9.20
2022-09-05T15:00:38.663Z,8.98
2022-09-05T15:02:51.203Z,9.48
2022-09-05T15:03:04.938Z,8.60
2022-09-05T15:05:41.860Z,8.63
2022-09-05T15:08:30.539Z,9.20
2022-09-05T15:12:23.540Z,9.18
2022-09-05T15:14:01.488Z,8.80
2022-09-05T15:16:31.279Z,9.40
2022-09-05T15:19:01.143Z,8.50
2022-09-05T15:21:35.284Z,9.50
2022-09-05T15:24:21.463Z,9.50
2022-09-05T15:26:53.063Z,9.75
2022-09-05T15:29:25.726Z,9.45
2022-09-05T15:32:09.121Z,8.70
2022-09-05T15:34:40.217Z,8.82
2022-09-05T15:37:32.954Z,9.80
2022-09-05T15:40:04.084Z,9.48
2022-09-05T15:42:38.211Z,9.00
2022-09-05T15:45:10.978Z,9.35
2022-09-05T15:47:47.348Z,9.10
2022-09-05T15:50:26.369Z,9.15
2022-09-05T15:52:56.133Z,8.82
2022-09-05T15:55:26.302Z,9.27
2022-09-05T15:57:57.685Z,8.98
2022-09-05T16:00:41.939Z,8.50
2022-09-05T16:08:17.047Z,8.80
2022-09-05T16:10:36.896Z,9.27
2022-09-05T16:10:37.382Z,9.70
2022-09-05T16:12:17.027Z,9.98
2022-09-05T16:15:07.189Z,10.80
2022-09-05T16:23:13.618Z,10.93
2022-09-05T16:23:31.184Z,9.73
2022-09-05T16:23:40.771Z,15.50
2022-09-05T16:26:14.183Z,16.58
2022-09-05T16:28:58.703Z,14.57
2022-09-05T16:31:35.470Z,13.30
2022-09-05T16:34:08.480Z,17.10
2022-09-05T16:37:08.012Z,15.00
2022-09-05T16:39:43.626Z,14.45
2022-09-05T16:42:18.356Z,13.23
2022-09-05T16:44:52.620Z,14.43
2022-09-05T16:47:25.675Z,15.13
2022-09-05T16:50:04.540Z,16.20
2022-09-05T16:52:53.272Z,15.77
2022-09-05T16:55:32.915Z,16.43
2022-09-05T16:58:14.214Z,18.63
2022-09-05T17:01:02.685Z,16.87
2022-09-05T17:03:42.153Z,17.88
2022-09-05T17:06:26.249Z,18.63
2022-09-05T17:09:12.238Z,18.93
2022-09-05T17:11:52.406Z,19.33
2022-09-05T17:14:35.097Z,19.00
2022-09-05T17:17:19.717Z,18.98
2022-09-05T17:20:05.972Z,16.23
2022-09-05T17:24:46.483Z,17.27
2022-09-05T17:29:36.537Z,15.93
2022-09-05T17:29:50.646Z,15.20
2022-09-05T17:31:56.926Z,14.67
2022-09-05T17:34:49.594Z,14.90
2022-09-05T17:37:44.374Z,14.23
2022-09-05T17:40:57.235Z,14.73
2022-09-05T17:43:29.634Z,13.47
2022-09-05T17:46:21.278Z,12.57
2022-09-05T17:49:19.393Z,12.57
2022-09-05T17:52:22.983Z,13.70
2022-09-05T17:54:54.087Z,13.60
2022-09-05T17:57:44.222Z,12.70
2022-09-05T18:01:00.466Z,13.50
2022-09-05T18:04:16.054Z,13.13
2022-09-05T18:07:00.683Z,12.50
2022-09-05T18:09:59.054Z,11.97
2022-09-05T18:13:11.819Z,12.33
2022-09-05T18:16:07.785Z,12.70
2022-09-05T18:19:08.879Z,14.10
2022-09-05T18:21:42.237Z,13.30
2022-09-05T18:24:24.270Z,14.73
2022-09-05T18:26:56.119Z,14.00
2022-09-05T18:29:58.272Z,15.13
2022-09-05T18:32:42.452Z,17.57
2022-09-05T18:35:37.129Z,16.53
2022-09-05T18:38:17.394Z,17.43
2022-09-05T18:40:53.332Z,16.63
2022-09-05T18:43:34.928Z,15.07
2022-09-05T18:46:14.167Z,14.37
2022-09-05T18:48:59.651Z,13.77
2022-09-05T18:51:48.353Z,13.27
2022-09-05T18:54:20.194Z,13.50
2022-09-05T18:57:19.932Z,12.47
2022-09-05T18:59:51.543Z,12.40
2022-09-05T19:02:28.692Z,12.13
2022-09-05T19:05:38.456Z,12.40
2022-09-05T19:08:28.927Z,12.13
2022-09-05T19:11:09.197Z,12.30
2022-09-05T19:14:14.237Z,12.67
2022-09-05T19:16:47.807Z,12.50
2022-09-05T19:19:19.435Z,12.17
2022-09-05T19:22:36.034Z,12.27
2022-09-05T19:24:46.905Z,12.10
2022-09-05T19:27:58.750Z,12.40
2022-09-05T19:36:52.006Z,12.30
2022-09-05T19:37:06.264Z,14.13
2022-09-05T19:37:08.707Z,15.50
2022-09-05T19:40:23.951Z,15.37
2022-09-05T19:47:33.695Z,16.07
2022-09-05T19:47:40.057Z,15.67
2022-09-05T19:47:50.994Z,16.20
2022-09-05T19:50:11.499Z,16.57
2022-09-05T19:52:40.857Z,16.67
2022-09-05T19:55:21.985Z,16.17
2022-09-05T19:58:14.881Z,14.47
2022-09-05T20:00:45.954Z,14.53
2022-09-05T20:03:39.226Z,13.53
2022-09-05T20:06:28.718Z,13.80
2022-09-05T20:09:10.902Z,15.07
2022-09-05T20:11:46.236Z,14.80
2022-09-05T20:14:23.811Z,13.97
2022-09-05T20:16:55.944Z,13.57
2022-09-05T20:19:31.826Z,13.27
2022-09-05T20:22:47.719Z,13.33
2022-09-05T20:25:06.763Z,13.17
2022-09-05T20:27:35.175Z,13.57
2022-09-05T20:30:05.546Z,14.10
2022-09-05T20:32:40.459Z,13.17
2022-09-05T20:39:01.011Z,12.60
2022-09-05T20:43:12.338Z,15.70
2022-09-05T20:43:31.859Z,18.20
2022-09-05T20:44:19.273Z,21.93
2022-09-05T20:50:48.371Z,24.57
2022-09-05T20:54:20.950Z,24.70
2022-09-05T20:54:27.561Z,17.90
2022-09-05T20:55:41.205Z,18.80
2022-09-05T20:58:12.689Z,19.07
2022-09-05T21:01:02.442Z,22.87
2022-09-05T21:03:38.215Z,22.00
2022-09-05T21:06:33.545Z,23.10
2022-09-05T21:09:22.492Z,27.00
2022-09-05T21:11:56.497Z,24.67
2022-09-05T21:14:28.210Z,25.20
2022-09-05T21:17:00.661Z,26.63
2022-09-05T21:19:31.585Z,26.17
2022-09-05T21:22:04.656Z,38.17
2022-09-05T21:24:34.786Z,33.57
2022-09-05T21:27:17.695Z,29.97
2022-09-05T21:29:48.267Z,32.07
2022-09-05T21:32:37.905Z,27.80
2022-09-05T21:35:33.809Z,29.00
2022-09-05T21:37:56.651Z,24.63
2022-09-05T21:40:26.668Z,21.17
2022-09-05T21:47:33.548Z,18.30
2022-09-05T21:47:48.043Z,16.10
2022-09-05T21:48:37.807Z,18.50
2022-09-05T21:51:08.891Z,18.17
2022-09-05T21:56:35.976Z,16.27
2022-09-05T21:59:27.856Z,17.87
2022-09-05T21:59:40.081Z,16.20
2022-09-05T22:02:11.512Z,16.83
2022-09-05T22:04:41.532Z,18.40
2022-09-05T22:07:32.439Z,18.70
2022-09-05T22:10:04.242Z,16.63
2022-09-05T22:12:36.133Z,16.57
2022-09-05T22:15:26.851Z,15.83
2022-09-05T22:18:16.536Z,16.33
2022-09-05T22:20:46.113Z,16.40
2022-09-05T22:23:20.394Z,15.90
2022-09-05T22:25:48.744Z,15.70
2022-09-05T22:28:28.805Z,15.37
2022-09-05T22:31:07.693Z,14.20
2022-09-05T22:33:36.637Z,14.87
2022-09-05T22:36:05.379Z,16.30
2022-09-05T22:38:34.164Z,16.13
2022-09-05T22:41:06.115Z,15.53
2022-09-05T22:43:36.065Z,14.93
2022-09-05T22:46:04.690Z,15.27
2022-09-05T22:48:33.240Z,16.33
2022-09-05T22:51:01.634Z,15.67
2022-09-05T22:53:29.915Z,15.53
2022-09-05T22:56:00.345Z,15.17
2022-09-05T22:58:29.676Z,17.00
2022-09-05T23:01:02.228Z,15.90
2022-09-05T23:03:30.805Z,16.57
2022-09-05T23:06:03.579Z,18.37
2022-09-05T23:08:32.372Z,17.77
2022-09-05T23:11:07.311Z,16.83
2022-09-05T23:13:35.693Z,16.97
2022-09-05T23:16:05.798Z,18.53
2022-09-05T23:18:34.555Z,18.23
2022-09-05T23:21:02.984Z,16.23
2022-09-05T23:23:31.479Z,16.43
2022-09-05T23:26:01.600Z,16.00
2022-09-05T23:28:29.812Z,15.90
2022-09-05T23:31:01.375Z,15.20
2022-09-05T23:33:31.532Z,15.30
2022-09-05T23:36:03.385Z,14.67
2022-09-05T23:38:32.000Z,15.87
2022-09-05T23:41:01.493Z,15.33
2022-09-05T23:43:30.067Z,14.57
2022-09-05T23:45:58.369Z,14.60
2022-09-05T23:48:27.293Z,14.87
2022-09-05T23:50:57.563Z,14.83
2022-09-05T23:53:26.018Z,14.60
2022-09-05T23:55:54.287Z,14.40
2022-09-05T23:58:23.029Z,15.60
